Terminal Aerodrome Forecast
Issued by NWS

Home | Current Version | Previous Version | Text Only | Print | Product List | Glossary On
Versions: 1 2 3 4 5 6 7 8 9 10 11 12 13 14
000
FTUS44 KHGX 181120
TAFCXO
TAF
KCXO 181120Z 1812/1912 00000KT P6SM OVC100
     FM181500 03007KT P6SM FEW040
     FM190300 VRB03KT P6SM SCT250=

USA.gov is the U.S. government's official web portal to all federal, state and local government web resources and services.